createdAt,value
2022-09-12T00:01:36.514Z,99881.33
2022-09-12T00:04:06.129Z,99882.72
2022-09-12T00:06:37.564Z,99886.13
2022-09-12T00:09:13.692Z,99888.89
2022-09-12T00:11:47.103Z,99886.89
2022-09-12T00:14:18.982Z,99882.70
2022-09-12T00:16:47.841Z,99878.57
2022-09-12T00:19:19.724Z,99880.86
2022-09-12T00:21:48.896Z,99880.13
2022-09-12T00:24:18.960Z,99880.84
2022-09-12T00:26:48.766Z,99881.17
2022-09-12T00:29:23.091Z,99879.66
2022-09-12T00:31:51.911Z,99877.79
2022-09-12T00:34:20.922Z,99875.89
2022-09-12T00:36:52.052Z,99877.99
2022-09-12T00:39:22.173Z,99876.10
2022-09-12T00:41:51.636Z,99875.45
2022-09-12T00:44:22.901Z,99873.49
2022-09-12T00:46:59.603Z,99868.25
2022-09-12T00:49:46.634Z,99868.48
2022-09-12T00:52:21.000Z,99867.38
2022-09-12T00:54:50.537Z,99864.13
2022-09-12T00:57:24.546Z,99865.45
2022-09-12T01:00:01.898Z,99867.57
2022-09-12T01:02:30.921Z,99870.88
2022-09-12T01:05:01.667Z,99869.47
2022-09-12T01:07:31.029Z,99866.20
2022-09-12T01:09:59.918Z,99862.92
2022-09-12T01:12:30.411Z,99865.80
2022-09-12T01:15:00.325Z,99865.80
2022-09-12T01:17:43.884Z,99869.90
2022-09-12T01:20:23.105Z,99870.86
2022-09-12T01:23:10.327Z,99865.45
2022-09-12T01:26:01.391Z,99864.59
2022-09-12T01:28:40.010Z,99862.20
2022-09-12T01:31:44.088Z,99858.58
2022-09-12T01:34:47.480Z,99858.74
2022-09-12T01:37:28.853Z,99857.12
2022-09-12T01:40:17.592Z,99857.95
2022-09-12T01:43:05.120Z,99858.95
2022-09-12T01:45:48.691Z,99863.48
2022-09-12T01:48:25.450Z,99864.85
2022-09-12T01:51:05.198Z,99870.42
2022-09-12T01:53:42.793Z,99873.63
2022-09-12T01:56:26.376Z,99876.41
2022-09-12T01:58:59.349Z,99876.23
2022-09-12T02:01:39.013Z,99877.77
2022-09-12T02:04:15.392Z,99876.84
2022-09-12T02:07:36.176Z,99876.42
2022-09-12T02:10:32.378Z,99877.18
2022-09-12T02:13:10.517Z,99877.48
2022-09-12T02:15:49.646Z,99881.12
2022-09-12T02:18:21.588Z,99886.09
2022-09-12T02:20:52.184Z,99881.40
2022-09-12T02:23:25.745Z,99886.09
2022-09-12T02:26:00.861Z,99886.45
2022-09-12T02:28:36.531Z,99888.13
2022-09-12T02:31:20.548Z,99890.75
2022-09-12T02:34:03.151Z,99889.14
2022-09-12T02:36:52.379Z,99892.26
2022-09-12T02:39:23.159Z,99888.52
2022-09-12T02:41:55.146Z,99891.45
2022-09-12T02:44:26.356Z,99895.31
2022-09-12T02:47:01.701Z,99895.95
2022-09-12T02:49:30.371Z,99893.02
2022-09-12T02:52:03.115Z,99887.82
2022-09-12T02:54:33.475Z,99892.48
2022-09-12T02:57:02.503Z,99895.11
2022-09-12T02:59:31.171Z,99895.38
2022-09-12T03:02:28.637Z,99899.23
2022-09-12T03:05:17.617Z,99895.78
2022-09-12T03:08:15.597Z,99893.36
2022-09-12T03:10:46.936Z,99898.06
2022-09-12T03:13:32.451Z,99899.45
2022-09-12T03:16:20.788Z,99902.06
2022-09-12T03:18:57.740Z,99903.89
2022-09-12T03:21:38.844Z,99904.49
2022-09-12T03:24:17.394Z,99907.55
2022-09-12T03:26:55.534Z,99908.45
2022-09-12T03:29:27.701Z,99907.13
2022-09-12T03:31:58.193Z,99906.27
2022-09-12T03:34:29.340Z,99914.59
2022-09-12T03:36:58.724Z,99916.45
2022-09-12T03:39:28.427Z,99916.38
2022-09-12T03:41:57.672Z,99918.63
2022-09-12T03:44:28.626Z,99924.50
2022-09-12T03:46:57.335Z,99924.43
2022-09-12T03:49:26.595Z,99927.51
2022-09-12T03:51:55.211Z,99927.09
2022-09-12T03:54:23.950Z,99929.23
2022-09-12T03:56:53.093Z,99926.58
2022-09-12T03:59:22.527Z,99927.96
2022-09-12T04:01:51.151Z,99928.38
2022-09-12T04:04:23.981Z,99933.52
2022-09-12T04:06:57.915Z,99934.94
2022-09-12T04:09:26.653Z,99935.64
2022-09-12T04:11:55.336Z,99937.63
2022-09-12T04:14:25.714Z,99938.61
2022-09-12T04:16:57.118Z,99940.66
2022-09-12T04:19:28.142Z,99941.39
2022-09-12T04:21:58.146Z,99945.01
2022-09-12T04:24:29.496Z,99944.65
2022-09-12T04:26:58.795Z,99947.70
2022-09-12T04:29:28.137Z,99948.20
2022-09-12T04:31:58.335Z,99945.52
2022-09-12T04:34:26.942Z,99949.89
2022-09-12T04:36:55.510Z,99952.34
2022-09-12T04:39:25.083Z,99954.20
2022-09-12T04:41:53.884Z,99959.33
2022-09-12T04:44:23.158Z,99961.73
2022-09-12T04:46:53.402Z,99961.44
2022-09-12T04:49:22.756Z,99967.95
2022-09-12T04:51:53.872Z,99964.60
2022-09-12T04:54:22.862Z,99967.08
2022-09-12T04:56:52.983Z,99965.00
2022-09-12T04:59:23.921Z,99964.61
2022-09-12T05:01:52.873Z,99971.07
2022-09-12T05:04:23.646Z,99968.29
2022-09-12T05:06:53.495Z,99972.25
2022-09-12T05:09:23.185Z,99970.88
2022-09-12T05:12:09.696Z,99974.25
2022-09-12T05:14:38.427Z,99978.27
2022-09-12T05:17:07.079Z,99980.91
2022-09-12T05:19:35.747Z,99982.21
2022-09-12T05:22:07.196Z,99983.64
2022-09-12T05:24:47.261Z,99980.66
2022-09-12T05:27:20.478Z,99978.45
2022-09-12T05:29:50.366Z,99976.83
2022-09-12T05:32:21.230Z,99972.66
2022-09-12T05:34:50.220Z,99968.77
2022-09-12T05:37:19.010Z,99965.73
2022-09-12T05:39:49.013Z,99964.98
2022-09-12T05:42:19.054Z,99969.13
2022-09-12T05:44:47.744Z,99969.63
2022-09-12T05:47:18.454Z,99967.83
2022-09-12T05:49:48.434Z,99964.59
2022-09-12T05:52:18.103Z,99965.67
2022-09-12T05:54:48.844Z,99965.22
2022-09-12T05:57:20.085Z,99967.95
2022-09-12T05:59:51.145Z,99969.06
2022-09-12T06:02:21.091Z,99967.89
2022-09-12T06:04:49.874Z,99972.09
2022-09-12T06:08:08.725Z,99974.30
2022-09-12T06:10:37.844Z,99977.84
2022-09-12T06:13:07.134Z,99983.63
2022-09-12T06:15:36.405Z,99985.27
2022-09-12T06:18:05.459Z,99988.64
2022-09-12T06:20:37.475Z,99987.54
2022-09-12T06:23:08.296Z,99988.16
2022-09-12T06:25:39.272Z,99986.23
2022-09-12T06:28:09.964Z,99985.13
2022-09-12T06:30:38.975Z,99986.19
2022-09-12T06:33:08.085Z,99988.52
2022-09-12T06:35:38.624Z,99985.55
2022-09-12T06:38:09.992Z,99981.84
2022-09-12T06:40:46.756Z,99984.83
2022-09-12T06:43:17.363Z,99982.69
2022-09-12T06:45:51.609Z,99982.29
2022-09-12T06:48:22.462Z,99981.41
2022-09-12T06:51:05.280Z,99974.20
2022-09-12T06:53:37.393Z,99976.91
2022-09-12T06:56:16.505Z,99974.10
2022-09-12T06:58:49.106Z,99974.41
2022-09-12T07:01:24.142Z,99974.34
2022-09-12T07:04:01.697Z,99976.51
2022-09-12T07:06:42.034Z,99979.23
2022-09-12T07:09:18.386Z,99982.10
2022-09-12T07:11:47.610Z,99978.11
2022-09-12T07:14:18.197Z,99980.60
2022-09-12T07:16:47.856Z,99982.27
2022-09-12T07:19:18.009Z,99988.89
2022-09-12T07:21:48.151Z,99988.42
2022-09-12T07:24:16.860Z,99989.72
2022-09-12T07:26:50.382Z,99997.30
2022-09-12T07:29:36.010Z,99998.27
2022-09-12T07:32:08.142Z,100002.80
2022-09-12T07:34:37.180Z,99997.10
2022-09-12T07:37:09.763Z,100001.81
2022-09-12T07:39:40.587Z,100005.80
2022-09-12T07:42:09.849Z,100007.89
2022-09-12T07:44:38.951Z,100009.63
2022-09-12T07:47:10.411Z,100006.31
2022-09-12T07:49:40.873Z,100007.48
2022-09-12T07:52:11.930Z,100012.96
2022-09-12T07:54:42.661Z,100013.17
2022-09-12T07:57:13.008Z,100018.23
2022-09-12T07:59:52.519Z,100014.86
2022-09-12T08:02:22.773Z,100013.10
2022-09-12T08:04:51.951Z,100017.36
2022-09-12T08:07:25.682Z,100012.48
2022-09-12T08:09:54.992Z,100021.22
2022-09-12T08:12:24.487Z,100022.45
2022-09-12T08:14:54.998Z,100021.04
2022-09-12T08:17:24.723Z,100025.04
2022-09-12T08:19:54.154Z,100024.52
2022-09-12T08:22:24.659Z,100024.26
2022-09-12T08:24:53.223Z,100021.29
2022-09-12T08:27:23.186Z,100024.04
2022-09-12T08:29:52.011Z,100030.61
2022-09-12T08:32:21.386Z,100036.95
2022-09-12T08:34:49.871Z,100038.79
2022-09-12T08:37:20.144Z,100033.40
2022-09-12T08:39:51.445Z,100035.09
2022-09-12T08:42:47.769Z,100038.36
2022-09-12T08:45:42.180Z,100032.77
2022-09-12T08:48:13.081Z,100031.10
2022-09-12T08:50:49.313Z,100029.47
2022-09-12T08:53:23.779Z,100031.46
2022-09-12T08:56:00.621Z,100031.82
2022-09-12T08:58:30.341Z,100039.13
2022-09-12T09:01:14.133Z,100036.38
2022-09-12T09:03:50.602Z,100047.52
2022-09-12T09:06:27.245Z,100044.05
2022-09-12T09:09:21.829Z,100046.20
2022-09-12T09:11:53.579Z,100053.84
2022-09-12T09:14:48.166Z,100050.15
2022-09-12T09:17:29.953Z,100051.70
2022-09-12T09:20:12.760Z,100045.95
2022-09-12T09:22:53.593Z,100049.09
2022-09-12T09:25:47.403Z,100052.59
2022-09-12T09:28:30.426Z,100054.34
2022-09-12T09:31:00.115Z,100054.41
2022-09-12T09:33:34.335Z,100049.33
2022-09-12T09:36:32.078Z,100050.02
2022-09-12T09:39:22.584Z,100048.64
2022-09-12T09:41:57.204Z,100046.35
2022-09-12T09:44:31.361Z,100044.79
2022-09-12T09:47:01.807Z,100041.21
2022-09-12T09:49:34.445Z,100042.84
2022-09-12T09:52:06.266Z,100037.80
2022-09-12T09:54:57.338Z,100035.06
2022-09-12T09:57:34.955Z,100037.54
2022-09-12T10:00:40.133Z,100042.73
2022-09-12T10:03:14.862Z,100043.16
2022-09-12T10:05:55.253Z,100045.55
2022-09-12T10:08:28.226Z,100044.15
2022-09-12T10:11:17.834Z,100042.42
2022-09-12T10:14:03.522Z,100044.24
2022-09-12T10:16:48.578Z,100046.42
2022-09-12T10:19:26.936Z,100049.13
2022-09-12T10:21:57.188Z,100053.98
2022-09-12T10:24:31.550Z,100054.13
2022-09-12T10:27:19.239Z,100058.80
2022-09-12T10:29:56.351Z,100060.96
2022-09-12T10:32:41.494Z,100059.35
2022-09-12T10:35:21.546Z,100056.45
2022-09-12T10:38:02.928Z,100057.66
2022-09-12T10:40:43.139Z,100057.58
2022-09-12T10:43:39.859Z,100061.33
2022-09-12T10:46:22.841Z,100057.34
2022-09-12T10:49:21.723Z,100063.84
2022-09-12T10:51:53.918Z,100068.10
2022-09-12T10:54:27.365Z,100067.83
2022-09-12T10:57:10.425Z,100071.39
2022-09-12T10:59:46.993Z,100074.58
2022-09-12T11:02:23.809Z,100076.02
2022-09-12T11:04:59.830Z,100079.20
2022-09-12T11:07:34.908Z,100076.86
2022-09-12T11:10:17.699Z,100075.30
2022-09-12T11:12:49.408Z,100078.75
2022-09-12T11:15:55.673Z,100076.95
2022-09-12T11:18:27.475Z,100072.25
2022-09-12T11:21:16.914Z,100075.40
2022-09-12T11:24:10.685Z,100074.70
2022-09-12T11:27:01.958Z,100069.08
2022-09-12T11:29:44.071Z,100074.87
2022-09-12T11:32:38.994Z,100077.64
2022-09-12T11:35:28.653Z,100078.27
2022-09-12T11:38:36.861Z,100079.77
2022-09-12T11:41:21.147Z,100072.80
2022-09-12T11:44:11.057Z,100068.45
2022-09-12T11:46:43.225Z,100071.10
2022-09-12T11:49:21.529Z,100068.48
2022-09-12T11:52:15.753Z,100068.89
2022-09-12T11:54:53.333Z,100068.58
2022-09-12T11:57:40.372Z,100060.50
2022-09-12T12:00:35.757Z,100058.86
2022-09-12T12:03:07.692Z,100051.13
2022-09-12T12:05:55.912Z,100062.60
2022-09-12T12:08:27.076Z,100056.92
2022-09-12T12:10:58.856Z,100054.00
2022-09-12T12:13:40.659Z,100054.27
2022-09-12T12:16:30.316Z,100054.92
2022-09-12T12:19:07.557Z,100058.70
2022-09-12T12:21:47.094Z,100053.90
2022-09-12T12:24:21.730Z,100055.89
2022-09-12T12:27:04.568Z,100065.48
2022-09-12T12:29:58.018Z,100068.58
2022-09-12T12:32:27.961Z,100066.83
2022-09-12T12:35:24.141Z,100066.66
2022-09-12T12:37:56.317Z,100069.23
2022-09-12T12:40:28.082Z,100070.30
2022-09-12T12:43:04.117Z,100068.75
2022-09-12T12:45:36.380Z,100070.41
2022-09-12T12:48:14.879Z,100068.34
2022-09-12T12:50:43.742Z,100057.08
2022-09-12T12:53:29.567Z,100058.31
2022-09-12T12:55:58.700Z,100062.73
2022-09-12T12:58:36.683Z,100059.23
2022-09-12T13:01:23.345Z,100059.38
2022-09-12T13:03:57.054Z,100057.46
2022-09-12T13:06:38.093Z,100064.91
2022-09-12T13:09:28.119Z,100072.95
2022-09-12T13:12:02.339Z,100072.25
2022-09-12T13:14:52.313Z,100068.14
2022-09-12T13:17:47.600Z,100073.53
2022-09-12T13:20:28.267Z,100072.52
2022-09-12T13:22:59.446Z,100081.09
2022-09-12T13:25:33.456Z,100079.84
2022-09-12T13:28:12.672Z,100081.13
2022-09-12T13:30:46.820Z,100083.38
2022-09-12T13:33:19.439Z,100081.35
2022-09-12T13:36:14.475Z,100081.98
2022-09-12T13:39:02.656Z,100084.39
2022-09-12T13:41:31.325Z,100081.29
2022-09-12T13:44:02.899Z,100080.74
2022-09-12T13:46:35.115Z,100080.48
2022-09-12T13:49:20.691Z,100078.62
2022-09-12T13:52:07.309Z,100075.39
2022-09-12T13:54:39.328Z,100076.17
2022-09-12T13:57:09.019Z,100075.52
2022-09-12T13:59:43.078Z,100079.14
2022-09-12T14:02:24.153Z,100075.05
2022-09-12T14:05:13.556Z,100073.44
2022-09-12T14:07:56.956Z,100076.22
2022-09-12T14:10:34.150Z,100075.39
2022-09-12T14:13:12.361Z,100074.38
2022-09-12T14:15:47.844Z,100078.90
2022-09-12T14:18:28.847Z,100072.81
2022-09-12T14:21:13.188Z,100075.31
2022-09-12T14:23:49.165Z,100075.59
2022-09-12T14:26:19.445Z,100072.41
2022-09-12T14:28:48.676Z,100075.05
2022-09-12T14:31:23.960Z,100072.74
2022-09-12T14:34:11.483Z,100074.35
2022-09-12T14:36:50.936Z,100075.76
2022-09-12T14:39:40.743Z,100080.98
2022-09-12T14:42:18.700Z,100074.77
2022-09-12T14:45:17.968Z,100079.56
2022-09-12T14:47:54.096Z,100081.16
2022-09-12T14:50:32.166Z,100084.20
2022-09-12T14:53:18.201Z,100086.17
2022-09-12T14:55:55.439Z,100079.64
2022-09-12T14:58:29.032Z,100078.33
2022-09-12T15:01:04.145Z,100078.93
2022-09-12T15:03:36.368Z,100080.66
2022-09-12T15:06:09.544Z,100080.02
2022-09-12T15:08:42.759Z,100079.15
2022-09-12T15:11:13.623Z,100082.85
2022-09-12T15:13:44.806Z,100083.05
2022-09-12T15:16:18.621Z,100082.48
2022-09-12T15:18:47.453Z,100091.58
2022-09-12T15:21:20.907Z,100090.50
2022-09-12T15:23:51.314Z,100091.66
2022-09-12T15:26:23.708Z,100092.61
2022-09-12T15:28:52.367Z,100091.00
2022-09-12T15:31:27.549Z,100094.20
2022-09-12T15:34:00.708Z,100095.50
2022-09-12T15:36:29.971Z,100094.08
2022-09-12T15:38:59.566Z,100096.40
2022-09-12T15:41:39.065Z,100101.58
2022-09-12T15:44:12.889Z,100098.89
2022-09-12T15:46:42.545Z,100096.95
2022-09-12T15:49:11.564Z,100093.27
2022-09-12T15:51:41.414Z,100093.85
2022-09-12T15:54:14.552Z,100096.28
2022-09-12T15:56:44.304Z,100094.88
2022-09-12T15:59:13.903Z,100095.86
2022-09-12T16:01:43.119Z,100099.20
2022-09-12T16:04:32.302Z,100095.94
2022-09-12T16:07:01.568Z,100096.23
2022-09-12T16:09:30.462Z,100096.81
2022-09-12T16:12:00.116Z,100094.36
2022-09-12T16:14:31.500Z,100097.37
2022-09-12T16:17:02.088Z,100097.86
2022-09-12T16:19:31.743Z,100102.45
2022-09-12T16:22:01.381Z,100102.77
2022-09-12T16:24:31.613Z,100105.89
2022-09-12T16:27:01.301Z,100105.34
2022-09-12T16:29:30.505Z,100105.05
2022-09-12T16:31:59.211Z,100104.13
2022-09-12T16:34:28.016Z,100108.52
2022-09-12T16:36:58.014Z,100107.30
2022-09-12T16:39:27.689Z,100105.95
2022-09-12T16:41:59.214Z,100103.83
2022-09-12T16:44:30.969Z,100107.61
2022-09-12T16:47:02.085Z,100101.88
2022-09-12T16:49:30.991Z,100105.13
2022-09-12T16:52:00.073Z,100105.52
2022-09-12T16:54:30.829Z,100101.88
2022-09-12T16:57:01.050Z,100103.59
2022-09-12T16:59:31.476Z,100102.25
2022-09-12T17:02:02.672Z,100106.73
2022-09-12T17:04:33.862Z,100100.54
2022-09-12T17:07:03.867Z,100101.54
2022-09-12T17:09:37.200Z,100101.89
2022-09-12T17:12:07.957Z,100100.05
2022-09-12T17:14:37.895Z,100098.11
2022-09-12T17:17:09.348Z,100102.83
2022-09-12T17:19:39.978Z,100101.52
2022-09-12T17:22:11.640Z,100100.83
2022-09-12T17:24:43.787Z,100100.52
2022-09-12T17:27:12.889Z,100100.94
2022-09-12T17:29:43.115Z,100107.17
2022-09-12T17:32:17.343Z,100112.30
2022-09-12T17:34:46.445Z,100114.41
2022-09-12T17:37:15.421Z,100115.96
2022-09-12T17:39:44.259Z,100114.58
2022-09-12T17:42:16.722Z,100116.50
2022-09-12T17:44:48.641Z,100122.08
2022-09-12T17:47:17.551Z,100125.17
2022-09-12T17:49:48.263Z,100130.05
2022-09-12T17:52:17.095Z,100125.73
2022-09-12T17:54:46.676Z,100128.23
2022-09-12T17:57:16.045Z,100129.14
2022-09-12T17:59:46.633Z,100129.77
2022-09-12T18:02:17.168Z,100133.91
2022-09-12T18:04:49.062Z,100131.46
2022-09-12T18:07:46.620Z,100132.90
2022-09-12T18:10:15.944Z,100131.27
2022-09-12T18:12:47.885Z,100133.80
2022-09-12T18:15:17.700Z,100130.00
2022-09-12T18:17:49.989Z,100127.02
2022-09-12T18:20:20.655Z,100131.78
2022-09-12T18:22:51.736Z,100131.36
2022-09-12T18:25:21.304Z,100125.22
2022-09-12T18:27:50.457Z,100124.17
2022-09-12T18:30:23.540Z,100124.71
2022-09-12T18:32:54.265Z,100121.75
2022-09-12T18:35:23.803Z,100125.96
2022-09-12T18:37:54.056Z,100124.20
2022-09-12T18:40:24.858Z,100124.34
2022-09-12T18:42:54.283Z,100125.70
2022-09-12T18:45:23.986Z,100124.51
2022-09-12T18:47:54.288Z,100126.92
2022-09-12T18:50:25.304Z,100125.77
2022-09-12T18:53:02.285Z,100127.06
2022-09-12T18:55:33.994Z,100128.07
2022-09-12T18:58:04.253Z,100133.53
2022-09-12T19:00:33.848Z,100135.84
2022-09-12T19:03:10.536Z,100132.81
2022-09-12T19:05:41.708Z,100130.91
2022-09-12T19:08:38.343Z,100132.50
2022-09-12T19:11:12.059Z,100133.08
2022-09-12T19:13:44.248Z,100133.66
2022-09-12T19:16:17.041Z,100132.72
2022-09-12T19:18:49.207Z,100130.14
2022-09-12T19:21:25.873Z,100130.78
2022-09-12T19:24:01.446Z,100132.02
2022-09-12T19:26:35.242Z,100127.08
2022-09-12T19:29:07.745Z,100126.09
2022-09-12T19:31:38.867Z,100126.53
2022-09-12T19:34:11.273Z,100129.39
2022-09-12T19:36:45.368Z,100125.54
2022-09-12T19:39:18.693Z,100121.30
2022-09-12T19:41:50.750Z,100122.46
2022-09-12T19:44:24.336Z,100124.30
2022-09-12T19:46:57.453Z,100120.20
2022-09-12T19:49:27.620Z,100120.23
2022-09-12T19:51:56.932Z,100119.70
2022-09-12T19:54:27.165Z,100122.89
2022-09-12T19:56:57.900Z,100119.74
2022-09-12T19:59:29.154Z,100117.83
2022-09-12T20:01:58.966Z,100119.75
2022-09-12T20:04:27.917Z,100116.60
2022-09-12T20:07:00.827Z,100116.70
2022-09-12T20:09:29.616Z,100119.46
2022-09-12T20:11:58.128Z,100122.14
2022-09-12T20:14:32.367Z,100120.85
2022-09-12T20:17:03.955Z,100124.84
2022-09-12T20:19:36.047Z,100120.30
2022-09-12T20:22:05.824Z,100121.48
2022-09-12T20:24:36.875Z,100119.56
2022-09-12T20:27:07.149Z,100118.74
2022-09-12T20:29:35.891Z,100119.27
2022-09-12T20:32:04.620Z,100116.94
2022-09-12T20:34:36.224Z,100112.68
2022-09-12T20:37:05.662Z,100112.61
2022-09-12T20:39:36.367Z,100111.04
2022-09-12T20:42:06.447Z,100109.19
2022-09-12T20:44:35.255Z,100110.24
2022-09-12T20:47:04.046Z,100109.90
2022-09-12T20:49:33.076Z,100110.98
2022-09-12T20:52:03.231Z,100111.06
2022-09-12T20:54:33.569Z,100106.59
2022-09-12T20:57:02.195Z,100102.10
2022-09-12T20:59:32.881Z,100103.13
2022-09-12T21:02:02.655Z,100102.42
2022-09-12T21:04:31.886Z,100100.94
2022-09-12T21:07:01.937Z,100104.72
2022-09-12T21:09:31.494Z,100109.23
2022-09-12T21:12:00.021Z,100109.84
2022-09-12T21:14:28.610Z,100106.13
2022-09-12T21:16:57.388Z,100103.72
2022-09-12T21:19:26.711Z,100101.58
2022-09-12T21:21:55.288Z,100102.02
2022-09-12T21:24:25.156Z,100101.77
2022-09-12T21:26:55.701Z,100099.78
2022-09-12T21:29:24.413Z,100095.46
2022-09-12T21:31:54.250Z,100087.77
2022-09-12T21:34:23.938Z,100080.52
2022-09-12T21:36:53.892Z,100071.27
2022-09-12T21:39:22.565Z,100071.96
2022-09-12T21:41:51.077Z,100070.51
2022-09-12T21:44:20.571Z,100065.96
2022-09-12T21:46:49.113Z,100070.50
2022-09-12T21:49:20.825Z,100069.19
2022-09-12T21:51:50.557Z,100073.34
2022-09-12T21:54:21.072Z,100073.85
2022-09-12T21:56:51.979Z,100075.06
2022-09-12T21:59:22.667Z,100079.61
2022-09-12T22:01:51.339Z,100082.38
2022-09-12T22:04:20.883Z,100083.68
2022-09-12T22:06:51.159Z,100082.41
2022-09-12T22:09:20.095Z,100088.14
2022-09-12T22:11:50.360Z,100090.06
2022-09-12T22:14:19.503Z,100086.85
2022-09-12T22:16:48.452Z,100087.95
2022-09-12T22:19:18.810Z,100082.73
2022-09-12T22:22:06.200Z,100079.06
2022-09-12T22:24:34.958Z,100078.67
2022-09-12T22:27:06.445Z,100075.61
2022-09-12T22:29:36.858Z,100074.67
2022-09-12T22:32:06.130Z,100074.42
2022-09-12T22:34:34.788Z,100075.34
2022-09-12T22:37:03.510Z,100076.20
2022-09-12T22:39:33.718Z,100079.42
2022-09-12T22:42:04.220Z,100073.30
2022-09-12T22:44:32.886Z,100065.67
2022-09-12T22:47:05.483Z,100060.83
2022-09-12T22:49:35.839Z,100056.42
2022-09-12T22:52:04.796Z,100057.49
2022-09-12T22:54:33.325Z,100057.66
2022-09-12T22:57:03.263Z,100064.02
2022-09-12T22:59:32.595Z,100060.67
2022-09-12T23:02:01.457Z,100061.60
2022-09-12T23:04:30.355Z,100063.48
2022-09-12T23:07:00.285Z,100058.61
2022-09-12T23:09:32.133Z,100059.40
2022-09-12T23:12:04.892Z,100059.98
2022-09-12T23:14:34.939Z,100059.21
2022-09-12T23:17:04.075Z,100060.69
2022-09-12T23:19:36.410Z,100061.42
2022-09-12T23:22:05.087Z,100057.24
2022-09-12T23:24:34.218Z,100056.70
2022-09-12T23:27:03.100Z,100054.55
2022-09-12T23:29:34.724Z,100052.59
2022-09-12T23:32:05.175Z,100051.02
2022-09-12T23:34:33.931Z,100053.73
2022-09-12T23:37:04.284Z,100052.62
2022-09-12T23:39:35.449Z,100046.66
2022-09-12T23:42:05.251Z,100044.17
2022-09-12T23:44:34.146Z,100046.20
2022-09-12T23:47:03.787Z,100041.48
2022-09-12T23:49:32.510Z,100039.77
2022-09-12T23:52:02.965Z,100036.71
2022-09-12T23:54:31.867Z,100032.90
2022-09-12T23:57:00.632Z,100030.98
2022-09-12T23:59:31.398Z,100033.94
